Time;durP1;ratioP1;P1;durP2;ratioP2;P2;SDS_P1;SDS_P2;PMS_P1;PMS_P2;Temp;Humidity;BMP_temperature;BMP_pressure;BME280_temperature;BME280_humidity;BME280_pressure;Samples;Min_cycle;Max_cycle;Signal;HPM_P1;HPM_P2
2021/01/16 00:00:30;;;;;;;2.50;1.60;;;0.20;99.90;;;;;;5001690;28;20478;-53
2021/01/16 00:02:57;;;;;;;3.70;1.63;;;0.10;99.90;;;;;;5001579;28;20426;-51
2021/01/16 00:05:25;;;;;;;3.10;1.80;;;0.10;99.90;;;;;;5001150;28;20466;-47
2021/01/16 00:08:00;;;;;;;3.10;1.40;;;0.10;99.90;;;;;;5001346;28;20518;-47
2021/01/16 00:10:26;;;;;;;2.37;1.63;;;0.00;99.90;;;;;;5001116;28;20426;-47
2021/01/16 00:12:54;;;;;;;5.40;2.00;;;0.00;99.90;;;;;;5001465;28;20435;-51
2021/01/16 00:15:21;;;;;;;4.80;3.07;;;0.10;99.90;;;;;;5001621;28;20541;-49
2021/01/16 00:17:58;;;;;;;2.57;1.47;;;0.10;99.90;;;;;;5001564;28;20426;-48
2021/01/16 00:20:25;;;;;;;3.30;1.77;;;0.20;99.90;;;;;;5000866;28;20414;-48
2021/01/16 00:22:52;;;;;;;2.87;2.00;;;0.10;99.90;;;;;;5000903;28;20450;-49
2021/01/16 00:25:18;;;;;;;3.33;2.17;;;0.20;99.90;;;;;;5001433;28;20454;-49
2021/01/16 00:27:45;;;;;;;2.90;1.90;;;0.20;99.90;;;;;;5001063;28;20454;-49
2021/01/16 00:30:13;;;;;;;5.23;1.90;;;0.20;99.90;;;;;;5001354;28;20498;-49
2021/01/16 00:32:40;;;;;;;3.07;1.60;;;0.20;99.90;;;;;;5000805;28;20431;-51
2021/01/16 00:35:10;;;;;;;2.43;1.90;;;0.20;99.90;;;;;;5000808;28;20482;-53
2021/01/16 00:37:41;;;;;;;4.40;2.23;;;0.20;99.90;;;;;;5000622;28;20468;-49
2021/01/16 00:40:10;;;;;;;1.83;1.40;;;0.20;99.90;;;;;;4999679;28;20554;-43
2021/01/16 00:42:39;;;;;;;5.27;2.33;;;0.10;99.90;;;;;;4999910;28;20450;-51
2021/01/16 00:45:07;;;;;;;2.97;2.17;;;0.00;99.90;;;;;;4998973;28;20455;-45
2021/01/16 00:47:34;;;;;;;3.90;1.87;;;0.00;99.90;;;;;;4999733;28;20450;-52
2021/01/16 00:50:01;;;;;;;2.30;1.83;;;0.00;99.90;;;;;;4999685;28;20463;-47
2021/01/16 00:52:28;;;;;;;4.33;2.70;;;0.00;99.90;;;;;;4999482;28;20481;-52
2021/01/16 00:54:55;;;;;;;3.40;1.87;;;-0.10;99.90;;;;;;4999609;28;20494;-46
2021/01/16 00:57:21;;;;;;;3.37;1.90;;;-0.20;99.90;;;;;;4999854;28;20446;-51
2021/01/16 00:59:48;;;;;;;3.50;2.73;;;-0.10;99.90;;;;;;4999394;28;20443;-47
2021/01/16 01:02:14;;;;;;;3.20;2.00;;;-0.10;99.90;;;;;;4999151;28;20455;-46
2021/01/16 01:04:40;;;;;;;2.40;1.77;;;-0.10;99.90;;;;;;4998944;28;20498;-48
2021/01/16 01:07:10;;;;;;;3.40;1.87;;;-0.10;99.90;;;;;;4999670;28;20439;-46
2021/01/16 01:09:37;;;;;;;2.57;1.70;;;0.00;99.90;;;;;;4999871;28;20458;-51
2021/01/16 01:12:05;;;;;;;7.03;2.63;;;0.00;99.90;;;;;;5000315;28;20423;-45
2021/01/16 01:14:31;;;;;;;3.93;1.83;;;0.10;99.90;;;;;;5000114;28;20506;-47
2021/01/16 01:16:58;;;;;;;2.90;1.67;;;0.10;99.90;;;;;;4999382;28;20447;-45
2021/01/16 01:19:24;;;;;;;3.47;1.83;;;0.10;99.90;;;;;;4998847;28;20443;-44
2021/01/16 01:21:51;;;;;;;2.80;2.00;;;0.10;99.90;;;;;;4999241;28;20494;-47
2021/01/16 01:24:17;;;;;;;4.13;2.03;;;0.10;99.90;;;;;;4999497;28;20467;-50
2021/01/16 01:26:47;;;;;;;5.23;2.13;;;0.10;99.90;;;;;;4999036;28;20438;-47
2021/01/16 01:29:14;;;;;;;2.47;2.00;;;0.20;99.90;;;;;;4999346;28;20941;-47
2021/01/16 01:31:40;;;;;;;4.83;2.50;;;0.30;99.90;;;;;;4999317;28;20442;-46
2021/01/16 01:34:07;;;;;;;2.47;1.83;;;0.20;99.90;;;;;;4999467;28;20503;-49
2021/01/16 01:36:37;;;;;;;11.30;2.87;;;0.20;99.90;;;;;;4999224;28;20463;-44
2021/01/16 01:39:04;;;;;;;3.10;2.00;;;0.20;99.90;;;;;;4994117;28;20440;-48
2021/01/16 01:41:30;;;;;;;3.40;2.50;;;0.20;99.90;;;;;;4999553;28;20433;-50
2021/01/16 01:43:58;;;;;;;4.90;2.00;;;0.10;99.90;;;;;;4999175;28;20442;-51
2021/01/16 01:46:24;;;;;;;3.13;2.00;;;0.10;99.90;;;;;;4999465;28;20431;-48
2021/01/16 01:48:54;;;;;;;2.30;2.03;;;0.10;99.90;;;;;;4999645;28;20454;-44
2021/01/16 01:51:23;;;;;;;3.87;2.67;;;0.20;99.90;;;;;;4999641;28;20486;-49
2021/01/16 01:53:52;;;;;;;4.50;2.43;;;0.20;99.90;;;;;;4999359;28;22360;-47
2021/01/16 01:56:23;;;;;;;3.67;2.67;;;0.20;99.90;;;;;;4998454;28;20423;-47
2021/01/16 01:58:51;;;;;;;3.87;2.33;;;0.20;99.90;;;;;;4999298;28;20423;-50
2021/01/16 02:01:22;;;;;;;3.60;2.10;;;0.20;99.90;;;;;;4999230;28;20609;-47
2021/01/16 02:03:50;;;;;;;4.20;3.00;;;0.10;99.90;;;;;;4996985;28;20464;-49
2021/01/16 02:06:27;;;;;;;2.93;1.93;;;0.10;99.90;;;;;;4998891;28;20447;-46
2021/01/16 02:08:56;;;;;;;3.13;2.00;;;0.00;99.90;;;;;;4998512;28;20463;-47
2021/01/16 02:11:23;;;;;;;2.90;2.17;;;0.00;99.90;;;;;;4998676;28;20459;-48
2021/01/16 02:13:49;;;;;;;5.60;2.50;;;0.10;99.90;;;;;;4998362;28;20461;-46
2021/01/16 02:16:24;;;;;;;3.60;2.47;;;0.10;99.90;;;;;;4998400;28;20431;-46
2021/01/16 02:18:54;;;;;;;2.83;2.63;;;0.00;99.90;;;;;;4998027;28;20446;-48
2021/01/16 02:21:21;;;;;;;5.60;2.37;;;0.00;99.90;;;;;;4998007;28;20451;-50
2021/01/16 02:23:57;;;;;;;5.40;3.10;;;-0.10;99.90;;;;;;4997678;28;20474;-48
2021/01/16 02:26:57;;;;;;;4.97;3.10;;;-0.10;99.90;;;;;;4998161;28;20466;-49
2021/01/16 02:29:25;;;;;;;6.97;3.73;;;-0.30;99.90;;;;;;4999364;28;20439;-44
2021/01/16 02:31:56;;;;;;;3.00;2.47;;;-0.20;99.90;;;;;;4998764;28;20439;-46
2021/01/16 02:34:29;;;;;;;6.03;3.10;;;-0.20;99.90;;;;;;4998127;28;20470;-45
2021/01/16 02:37:23;;;;;;;4.63;2.83;;;-0.30;99.90;;;;;;4997677;28;20455;-44
2021/01/16 02:40:01;;;;;;;6.93;3.03;;;-0.30;99.90;;;;;;4991128;28;20462;-43
2021/01/16 02:42:38;;;;;;;7.50;2.60;;;-0.40;99.90;;;;;;4997920;28;20403;-42
2021/01/16 02:45:11;;;;;;;3.90;2.30;;;-0.40;99.90;;;;;;4997946;28;20419;-43
2021/01/16 02:47:48;;;;;;;5.27;3.07;;;-0.40;99.90;;;;;;4998258;28;20435;-43
2021/01/16 02:50:21;;;;;;;4.03;2.20;;;-0.40;99.90;;;;;;4998212;28;20399;-48
2021/01/16 02:52:49;;;;;;;4.20;2.27;;;-0.50;99.90;;;;;;4998439;28;20415;-45
2021/01/16 02:55:17;;;;;;;4.77;2.77;;;-0.50;99.90;;;;;;4998071;28;20518;-42
2021/01/16 02:57:44;;;;;;;5.30;2.63;;;-0.40;99.90;;;;;;4998559;28;20439;-43
2021/01/16 03:00:14;;;;;;;3.87;2.83;;;-0.40;99.90;;;;;;4997349;28;20503;-45
2021/01/16 03:02:41;;;;;;;5.63;3.37;;;-0.50;99.90;;;;;;4997658;28;20450;-51
2021/01/16 03:05:09;;;;;;;3.50;2.07;;;-0.40;99.90;;;;;;4997608;28;20462;-48
2021/01/16 03:07:37;;;;;;;4.40;2.77;;;-0.30;99.90;;;;;;4997335;28;20446;-50
2021/01/16 03:10:07;;;;;;;4.33;2.97;;;-0.30;99.90;;;;;;4997420;28;20447;-45
2021/01/16 03:12:33;;;;;;;3.17;2.83;;;-0.40;99.90;;;;;;4997497;28;20441;-48
2021/01/16 03:15:04;;;;;;;3.53;2.80;;;-0.40;99.90;;;;;;4996987;28;20490;-46
2021/01/16 03:17:44;;;;;;;5.83;3.10;;;-0.50;99.90;;;;;;4998462;28;20422;-48
2021/01/16 03:20:12;;;;;;;7.03;3.40;;;-0.50;99.90;;;;;;4998361;28;20450;-44
2021/01/16 03:22:41;;;;;;;4.43;2.53;;;-0.60;99.90;;;;;;5002851;28;20475;-48
2021/01/16 03:25:08;;;;;;;3.73;2.47;;;-0.70;99.90;;;;;;4997051;28;20443;-49
2021/01/16 03:27:38;;;;;;;5.47;3.10;;;-0.70;99.90;;;;;;4998074;28;20458;-47
2021/01/16 03:30:05;;;;;;;6.33;3.37;;;-0.80;99.90;;;;;;4998102;28;20454;-49
2021/01/16 03:32:32;;;;;;;3.63;2.57;;;-0.80;99.90;;;;;;4981703;28;20453;-48
2021/01/16 03:34:59;;;;;;;3.10;2.13;;;-0.70;99.90;;;;;;4998037;28;20564;-48
2021/01/16 03:37:26;;;;;;;5.20;2.23;;;-0.70;99.90;;;;;;4997015;28;20447;-50
2021/01/16 03:39:53;;;;;;;8.67;3.87;;;-0.70;99.90;;;;;;4997103;28;20474;-45
2021/01/16 03:42:19;;;;;;;7.20;3.80;;;-0.70;99.90;;;;;;4997158;28;20919;-44
2021/01/16 03:44:45;;;;;;;6.73;3.27;;;-0.60;99.90;;;;;;4997240;28;20465;-50
2021/01/16 03:47:12;;;;;;;4.30;3.23;;;-0.50;99.90;;;;;;4996969;28;20423;-47
2021/01/16 03:49:38;;;;;;;3.60;2.50;;;-0.60;99.90;;;;;;4997140;28;20431;-43
2021/01/16 03:52:06;;;;;;;5.20;2.67;;;-0.60;99.90;;;;;;4997157;28;20462;-51
2021/01/16 03:54:33;;;;;;;7.60;3.23;;;-0.60;99.90;;;;;;4997465;28;20546;-50
2021/01/16 03:56:59;;;;;;;7.60;3.10;;;-0.60;99.90;;;;;;4996404;28;20438;-45
2021/01/16 03:59:26;;;;;;;4.90;3.23;;;-0.60;99.90;;;;;;4996542;28;20440;-51
2021/01/16 04:01:52;;;;;;;10.07;2.80;;;-0.60;99.90;;;;;;4996422;28;20485;-50
2021/01/16 04:04:19;;;;;;;5.50;3.17;;;-0.60;99.90;;;;;;4996687;28;20463;-50
2021/01/16 04:06:45;;;;;;;4.33;2.90;;;-0.70;99.90;;;;;;4996092;28;20427;-50
2021/01/16 04:09:12;;;;;;;6.03;2.83;;;-0.80;99.90;;;;;;4996922;28;20461;-45
2021/01/16 04:11:39;;;;;;;4.30;2.93;;;-0.80;99.90;;;;;;4996525;28;20479;-43
2021/01/16 04:14:06;;;;;;;4.97;3.37;;;-0.80;99.90;;;;;;4996815;28;20478;-46
2021/01/16 04:16:33;;;;;;;4.30;2.50;;;-0.80;99.90;;;;;;4996796;28;20447;-45
2021/01/16 04:19:01;;;;;;;3.93;2.80;;;-0.80;99.90;;;;;;4996546;28;20454;-48
2021/01/16 04:21:28;;;;;;;4.20;2.87;;;-0.70;99.90;;;;;;4999991;28;20439;-42
2021/01/16 04:23:54;;;;;;;8.30;3.10;;;-0.60;99.90;;;;;;4999757;28;20438;-46
2021/01/16 04:26:22;;;;;;;6.43;3.10;;;-0.60;99.90;;;;;;5000271;28;20463;-49
2021/01/16 04:28:48;;;;;;;5.40;2.63;;;-0.70;99.90;;;;;;4999518;28;20481;-50
2021/01/16 04:31:15;;;;;;;4.87;2.77;;;-0.70;99.90;;;;;;5000311;28;20508;-47
2021/01/16 04:33:41;;;;;;;4.40;3.20;;;-0.80;99.90;;;;;;5000064;28;20442;-49
2021/01/16 04:36:08;;;;;;;4.00;2.40;;;-0.80;99.90;;;;;;5000051;28;20514;-50
2021/01/16 04:38:37;;;;;;;4.70;2.57;;;-0.70;99.90;;;;;;4999814;28;20470;-46
2021/01/16 04:41:04;;;;;;;5.97;2.93;;;-0.70;99.90;;;;;;5000195;28;20438;-47
2021/01/16 04:43:34;;;;;;;4.77;2.90;;;-0.70;99.90;;;;;;4999815;28;20527;-46
2021/01/16 04:46:04;;;;;;;4.90;2.77;;;-0.70;99.90;;;;;;5000110;28;20434;-48
2021/01/16 04:48:33;;;;;;;4.67;2.80;;;-0.80;99.90;;;;;;5001076;28;20431;-45
2021/01/16 04:51:01;;;;;;;6.80;3.50;;;-0.80;99.90;;;;;;5000716;28;20457;-43
2021/01/16 04:53:36;;;;;;;5.37;3.30;;;-0.80;99.90;;;;;;5000759;28;20462;-49
2021/01/16 04:56:03;;;;;;;7.93;2.90;;;-0.80;99.90;;;;;;5674393;23;20432;-46
2021/01/16 04:58:41;;;;;;;5.20;3.37;;;-0.80;99.90;;;;;;5172804;23;20515;-49
2021/01/16 05:01:09;;;;;;;5.83;2.97;;;-0.80;99.90;;;;;;4999571;28;20458;-51
2021/01/16 05:03:42;;;;;;;8.00;3.00;;;-0.80;99.90;;;;;;4999250;28;20522;-48
2021/01/16 05:06:10;;;;;;;4.87;2.70;;;-0.80;99.90;;;;;;4998749;28;20447;-44
2021/01/16 05:08:38;;;;;;;4.87;2.90;;;-0.70;99.90;;;;;;4999538;28;20446;-47
2021/01/16 05:11:11;;;;;;;9.87;3.77;;;-0.70;99.90;;;;;;4999355;28;20436;-52
2021/01/16 05:13:44;;;;;;;6.10;4.10;;;-0.60;99.90;;;;;;4999019;28;20459;-51
2021/01/16 05:16:15;;;;;;;7.60;3.10;;;-0.60;99.90;;;;;;4999267;28;20474;-52
2021/01/16 05:18:43;;;;;;;7.70;4.43;;;-0.60;99.90;;;;;;4998741;28;20466;-52
2021/01/16 05:21:10;;;;;;;4.53;3.57;;;-0.60;99.90;;;;;;4998925;28;20477;-51
2021/01/16 05:23:42;;;;;;;7.40;3.40;;;-0.50;99.90;;;;;;4985955;28;20522;-48
2021/01/16 05:26:09;;;;;;;4.97;2.90;;;-0.60;99.90;;;;;;4981205;28;20440;-48
2021/01/16 05:28:37;;;;;;;5.57;3.23;;;-0.60;99.90;;;;;;4979453;29;20440;-50
2021/01/16 05:31:06;;;;;;;5.13;3.13;;;-0.60;99.90;;;;;;4978957;28;20474;-46
2021/01/16 05:33:34;;;;;;;8.63;4.50;;;-0.60;99.90;;;;;;4979265;29;20478;-47
2021/01/16 05:36:02;;;;;;;7.80;4.90;;;-0.60;99.90;;;;;;4978983;29;20518;-45
2021/01/16 05:38:33;;;;;;;8.67;2.90;;;-0.50;99.90;;;;;;4979367;29;20452;-45
2021/01/16 05:41:03;;;;;;;7.10;4.20;;;-0.50;99.90;;;;;;4979111;29;20491;-47
2021/01/16 05:43:30;;;;;;;6.27;3.80;;;-0.50;99.90;;;;;;4979722;29;20498;-52
2021/01/16 05:46:02;;;;;;;6.90;3.50;;;-0.50;99.90;;;;;;4979480;29;20443;-50
2021/01/16 05:48:31;;;;;;;5.37;3.50;;;-0.50;99.90;;;;;;4979665;29;20435;-50
2021/01/16 05:50:59;;;;;;;4.70;3.63;;;-0.40;99.90;;;;;;4980253;29;20443;-48
2021/01/16 05:53:26;;;;;;;5.40;3.63;;;-0.40;99.90;;;;;;4980204;29;20436;-51
2021/01/16 05:55:54;;;;;;;6.00;4.40;;;-0.40;99.90;;;;;;4980422;29;20467;-50
2021/01/16 05:58:21;;;;;;;5.60;3.50;;;-0.40;99.90;;;;;;4979910;29;20475;-51
2021/01/16 06:00:52;;;;;;;4.17;3.20;;;-0.40;99.90;;;;;;4978753;29;20457;-52
2021/01/16 06:03:19;;;;;;;8.10;4.23;;;-0.40;99.90;;;;;;4979126;29;20460;-51
2021/01/16 06:05:51;;;;;;;10.33;4.40;;;-0.50;99.90;;;;;;4979399;29;20452;-50
2021/01/16 06:08:19;;;;;;;15.30;4.07;;;-0.50;99.90;;;;;;4980187;29;20433;-45
2021/01/16 06:10:53;;;;;;;5.40;3.60;;;-0.50;99.90;;;;;;4979455;29;20484;-45
2021/01/16 06:13:20;;;;;;;5.00;3.20;;;-0.40;99.90;;;;;;4979714;29;20459;-46
2021/01/16 06:15:49;;;;;;;6.40;4.17;;;-0.40;99.90;;;;;;4979638;29;20494;-48
2021/01/16 06:18:21;;;;;;;6.10;3.47;;;-0.30;99.90;;;;;;4980119;29;20448;-45
2021/01/16 06:20:54;;;;;;;7.97;4.33;;;-0.30;99.90;;;;;;4980034;29;20427;-42
2021/01/16 06:23:22;;;;;;;4.80;3.70;;;-0.30;99.90;;;;;;4979565;29;20433;-42
2021/01/16 06:25:52;;;;;;;9.70;4.13;;;-0.30;99.90;;;;;;4979506;29;20436;-45
2021/01/16 06:28:24;;;;;;;6.97;4.00;;;-0.30;99.90;;;;;;4979820;29;20440;-46
2021/01/16 06:30:55;;;;;;;6.27;3.60;;;-0.30;99.90;;;;;;4979540;29;20463;-45
2021/01/16 06:33:27;;;;;;;5.90;3.63;;;-0.30;99.90;;;;;;4978656;29;20471;-44
2021/01/16 06:36:00;;;;;;;12.80;4.10;;;-0.20;99.90;;;;;;4978385;29;20463;-47
2021/01/16 06:38:29;;;;;;;13.53;4.93;;;-0.20;99.90;;;;;;4978207;29;20482;-49
2021/01/16 06:40:56;;;;;;;8.40;4.40;;;-0.20;99.90;;;;;;4978399;29;20444;-46
2021/01/16 06:43:24;;;;;;;7.97;4.07;;;-0.20;99.90;;;;;;4977536;28;20440;-47
2021/01/16 06:45:51;;;;;;;6.13;3.50;;;-0.20;99.90;;;;;;4978414;29;20447;-46
2021/01/16 06:48:17;;;;;;;8.60;4.47;;;-0.30;99.90;;;;;;4978873;29;20444;-49
2021/01/16 06:50:47;;;;;;;7.07;4.60;;;-0.30;99.90;;;;;;4978834;29;20428;-52
2021/01/16 06:53:26;;;;;;;6.40;4.37;;;-0.30;99.90;;;;;;4978289;29;20451;-47
2021/01/16 06:56:07;;;;;;;10.17;4.93;;;-0.30;99.90;;;;;;4978626;29;20468;-44
2021/01/16 06:58:39;;;;;;;7.20;4.70;;;-0.20;99.90;;;;;;4978390;29;20514;-49
2021/01/16 07:01:07;;;;;;;5.87;3.63;;;-0.20;99.90;;;;;;4979296;29;20480;-52
2021/01/16 07:03:40;;;;;;;7.03;3.93;;;-0.10;99.90;;;;;;4979103;29;20461;-47
2021/01/16 07:06:07;;;;;;;7.37;3.90;;;-0.20;99.90;;;;;;4978152;29;20444;-47
2021/01/16 07:08:35;;;;;;;8.50;5.77;;;-0.20;99.90;;;;;;4978427;29;20452;-44
2021/01/16 07:11:02;;;;;;;7.97;3.90;;;-0.30;99.90;;;;;;4977941;29;20455;-44
2021/01/16 07:13:32;;;;;;;6.10;3.97;;;-0.20;99.90;;;;;;4977915;29;20483;-49
2021/01/16 07:16:00;;;;;;;7.37;5.00;;;-0.20;99.90;;;;;;4978046;29;20494;-45
2021/01/16 07:18:28;;;;;;;5.30;3.70;;;-0.20;99.90;;;;;;4978284;29;20459;-46
2021/01/16 07:20:59;;;;;;;9.00;5.60;;;-0.10;99.90;;;;;;4977747;29;20512;-49
2021/01/16 07:23:26;;;;;;;9.07;4.53;;;-0.10;99.90;;;;;;4977310;29;20451;-46
2021/01/16 07:25:55;;;;;;;11.27;4.33;;;-0.10;99.90;;;;;;4978732;28;20487;-45
2021/01/16 07:28:25;;;;;;;6.40;4.40;;;0.00;99.90;;;;;;4978400;29;20436;-47
2021/01/16 07:30:52;;;;;;;9.10;5.10;;;0.10;99.90;;;;;;4978017;28;20424;-46
2021/01/16 07:33:26;;;;;;;9.03;4.57;;;0.10;99.90;;;;;;4977952;29;20424;-46
2021/01/16 07:35:54;;;;;;;8.40;4.60;;;0.10;99.90;;;;;;4977760;29;20468;-47
2021/01/16 07:38:21;;;;;;;6.63;4.20;;;0.00;99.90;;;;;;4978273;29;20467;-51
2021/01/16 07:40:48;;;;;;;8.90;4.97;;;0.10;99.90;;;;;;4978469;29;20518;-48
2021/01/16 07:43:41;;;;;;;12.90;6.40;;;0.10;99.90;;;;;;4978653;29;20455;-49
2021/01/16 07:46:13;;;;;;;7.10;4.47;;;0.00;99.90;;;;;;4978580;29;20459;-47
2021/01/16 07:48:49;;;;;;;11.60;5.80;;;-0.10;99.90;;;;;;4978503;29;20436;-51
2021/01/16 07:51:17;;;;;;;9.30;5.23;;;-0.10;99.90;;;;;;4979248;29;20436;-52
2021/01/16 07:53:45;;;;;;;7.03;4.23;;;0.00;99.90;;;;;;4978811;28;20456;-47
2021/01/16 07:56:39;;;;;;;8.57;4.70;;;0.00;99.90;;;;;;4981956;29;20476;-46
2021/01/16 07:59:17;;;;;;;5.53;4.03;;;0.00;99.90;;;;;;4981118;29;20498;-46
2021/01/16 08:02:22;;;;;;;8.03;4.70;;;0.00;99.90;;;;;;4981822;29;20451;-50
2021/01/16 08:04:58;;;;;;;8.80;5.37;;;0.00;99.90;;;;;;4960866;29;20460;-51
2021/01/16 08:07:46;;;;;;;7.00;4.93;;;0.00;99.90;;;;;;4981476;29;20435;-56
2021/01/16 08:10:18;;;;;;;9.73;5.10;;;-0.20;99.90;;;;;;4981339;29;20432;-52
2021/01/16 08:12:47;;;;;;;9.90;4.33;;;0.10;99.90;;;;;;4982064;29;20456;-47
2021/01/16 08:15:18;;;;;;;5.57;4.80;;;0.10;99.90;;;;;;4981703;29;20494;-48
2021/01/16 08:17:46;;;;;;;10.93;6.70;;;0.10;99.90;;;;;;4980573;29;20447;-45
2021/01/16 08:20:27;;;;;;;9.70;5.80;;;0.10;99.90;;;;;;4980369;28;20494;-47
2021/01/16 08:22:58;;;;;;;11.83;6.90;;;-0.10;99.90;;;;;;4999953;28;20483;-48
2021/01/16 08:25:27;;;;;;;11.07;5.50;;;-0.10;99.90;;;;;;5000161;28;20439;-49
2021/01/16 08:27:55;;;;;;;6.07;4.17;;;-0.10;99.90;;;;;;5000167;28;20502;-49
2021/01/16 08:30:24;;;;;;;10.43;5.70;;;-0.20;99.90;;;;;;4999693;28;20498;-49
2021/01/16 08:32:55;;;;;;;10.83;6.30;;;-0.10;99.90;;;;;;5000399;28;20434;-48
2021/01/16 08:35:23;;;;;;;10.03;5.70;;;-0.10;99.90;;;;;;5000313;28;20462;-49
2021/01/16 08:37:50;;;;;;;10.57;4.93;;;0.00;99.90;;;;;;4999494;28;20469;-46
2021/01/16 08:40:33;;;;;;;11.40;5.97;;;-0.10;99.90;;;;;;5258724;23;20486;-56
2021/01/16 08:43:00;;;;;;;9.90;5.87;;;-0.10;99.90;;;;;;5000130;28;20502;-54
2021/01/16 08:45:28;;;;;;;10.83;6.60;;;0.00;99.90;;;;;;5000458;28;20439;-52
2021/01/16 08:47:56;;;;;;;8.43;5.03;;;0.00;99.90;;;;;;5000487;28;20517;-56
2021/01/16 08:50:33;;;;;;;9.67;5.50;;;0.10;99.90;;;;;;5000502;28;20430;-55
2021/01/16 08:53:00;;;;;;;16.77;7.17;;;0.00;99.90;;;;;;5000402;28;20442;-54
2021/01/16 08:55:28;;;;;;;10.20;7.37;;;-0.10;99.90;;;;;;5000138;28;20500;-54
2021/01/16 08:58:09;;;;;;;12.53;5.77;;;-0.10;99.90;;;;;;5000112;28;20882;-54
2021/01/16 09:00:38;;;;;;;9.70;5.97;;;-0.10;99.90;;;;;;4999937;28;20446;-55
2021/01/16 09:03:07;;;;;;;7.40;4.57;;;-0.10;99.90;;;;;;4999462;28;20453;-56
2021/01/16 09:05:35;;;;;;;7.77;5.03;;;0.00;99.90;;;;;;4994435;28;20442;-52
2021/01/16 09:08:03;;;;;;;9.73;5.93;;;0.10;99.90;;;;;;4994589;28;20503;-55
2021/01/16 09:10:32;;;;;;;11.00;6.27;;;0.00;99.90;;;;;;5000177;28;20427;-55
2021/01/16 09:12:59;;;;;;;14.30;6.37;;;0.00;99.90;;;;;;5000708;28;20419;-58
2021/01/16 09:15:27;;;;;;;7.90;4.90;;;0.10;99.90;;;;;;4999209;28;20538;-51
2021/01/16 09:18:09;;;;;;;10.60;5.33;;;0.10;99.90;;;;;;4999715;28;20475;-53
2021/01/16 09:20:37;;;;;;;11.70;6.87;;;0.10;99.90;;;;;;4999855;28;20445;-51
2021/01/16 09:23:24;;;;;;;10.70;5.20;;;0.00;99.90;;;;;;4999625;28;20431;-53
2021/01/16 09:25:52;;;;;;;12.53;6.27;;;0.10;99.90;;;;;;4999596;28;20439;-53
2021/01/16 09:28:49;;;;;;;6.10;4.83;;;0.10;99.90;;;;;;4999319;28;20455;-52
2021/01/16 09:31:21;;;;;;;12.50;5.50;;;0.20;99.90;;;;;;4999839;28;20446;-52
2021/01/16 09:33:49;;;;;;;10.47;5.90;;;0.30;99.90;;;;;;4999844;28;20977;-56
2021/01/16 09:36:34;;;;;;;7.53;4.63;;;0.30;99.90;;;;;;4999984;28;20489;-56
2021/01/16 09:39:01;;;;;;;9.63;5.20;;;0.30;99.90;;;;;;4999050;28;20432;-52
2021/01/16 09:41:34;;;;;;;11.73;6.00;;;0.30;99.90;;;;;;4999181;28;20498;-48
2021/01/16 09:44:02;;;;;;;9.30;5.80;;;0.30;99.90;;;;;;4998930;28;20457;-50
2021/01/16 09:46:35;;;;;;;9.50;5.87;;;0.40;99.90;;;;;;4999227;28;20447;-47
2021/01/16 09:49:04;;;;;;;5.90;4.10;;;0.50;99.90;;;;;;4997666;28;20447;-51
2021/01/16 09:51:31;;;;;;;9.60;5.63;;;0.40;99.90;;;;;;4986782;28;20459;-54
2021/01/16 09:54:37;;;;;;;11.73;7.47;;;0.40;99.90;;;;;;4985621;28;20428;-51
2021/01/16 09:57:05;;;;;;;12.13;6.80;;;0.30;99.90;;;;;;4999437;28;20419;-56
2021/01/16 09:59:31;;;;;;;9.47;4.97;;;0.20;99.90;;;;;;4984783;28;20424;-50
2021/01/16 10:02:08;;;;;;;8.97;5.80;;;0.30;99.90;;;;;;4979207;29;20451;-54
2021/01/16 10:04:39;;;;;;;7.70;4.77;;;0.40;99.90;;;;;;4990535;28;20494;-50
2021/01/16 10:07:10;;;;;;;8.67;4.60;;;0.40;99.90;;;;;;4984682;28;20452;-49
2021/01/16 10:09:45;;;;;;;14.00;6.67;;;0.40;99.90;;;;;;4979124;28;20448;-54
2021/01/16 10:12:39;;;;;;;10.00;5.33;;;0.40;99.90;;;;;;4983250;28;20438;-50
2021/01/16 10:15:08;;;;;;;9.87;5.10;;;0.50;99.90;;;;;;4979359;29;20475;-50
2021/01/16 10:17:36;;;;;;;10.57;5.93;;;0.50;99.90;;;;;;4993293;28;20455;-49
2021/01/16 10:20:07;;;;;;;9.90;5.53;;;0.50;99.90;;;;;;4978615;28;20459;-49
2021/01/16 10:22:35;;;;;;;7.13;5.00;;;0.50;99.90;;;;;;4982636;28;20938;-51
2021/01/16 10:25:08;;;;;;;7.20;5.73;;;0.50;99.90;;;;;;4989113;28;20494;-51
2021/01/16 10:27:44;;;;;;;8.60;4.60;;;0.50;99.90;;;;;;4987351;28;20440;-48
2021/01/16 10:30:16;;;;;;;8.17;4.70;;;0.50;99.90;;;;;;4979294;28;20427;-47
2021/01/16 10:32:43;;;;;;;8.90;5.00;;;0.50;99.90;;;;;;4978914;28;20458;-52
2021/01/16 10:35:19;;;;;;;8.97;4.33;;;0.50;99.90;;;;;;4987885;28;20490;-50
2021/01/16 10:38:28;;;;;;;8.03;4.47;;;0.50;99.90;;;;;;4983043;28;20441;-48
2021/01/16 10:40:58;;;;;;;7.07;4.20;;;0.50;99.90;;;;;;4983549;28;20498;-53
2021/01/16 10:43:30;;;;;;;12.83;6.10;;;0.40;99.90;;;;;;4997855;28;20473;-53
2021/01/16 10:46:09;;;;;;;8.37;4.13;;;0.50;99.90;;;;;;4985198;28;20451;-46
2021/01/16 10:48:38;;;;;;;8.63;4.57;;;0.50;99.90;;;;;;4995770;28;20435;-51
2021/01/16 10:51:07;;;;;;;6.07;4.87;;;0.50;99.90;;;;;;4987873;28;20420;-47
2021/01/16 10:53:37;;;;;;;11.07;5.30;;;0.70;99.90;;;;;;4991971;28;20438;-46
2021/01/16 10:56:15;;;;;;;7.90;5.33;;;0.80;99.90;;;;;;4996123;28;20494;-52
2021/01/16 10:58:44;;;;;;;7.00;4.90;;;0.90;99.90;;;;;;4977970;28;20435;-49
2021/01/16 11:01:12;;;;;;;8.27;5.17;;;0.80;99.90;;;;;;4979543;28;20439;-52
2021/01/16 11:03:39;;;;;;;7.30;4.57;;;0.90;99.90;;;;;;4997582;28;20455;-52
2021/01/16 11:06:08;;;;;;;7.87;4.47;;;1.10;99.90;;;;;;4986177;28;20459;-50
2021/01/16 11:08:37;;;;;;;9.77;5.97;;;1.20;99.90;;;;;;4978746;29;20433;-51
2021/01/16 11:11:23;;;;;;;6.80;3.90;;;1.20;99.90;;;;;;4978772;28;20443;-55
2021/01/16 11:13:50;;;;;;;9.40;4.07;;;1.30;99.90;;;;;;4978400;29;20436;-52
2021/01/16 11:16:23;;;;;;;12.37;5.87;;;1.20;99.90;;;;;;4978715;28;20479;-49
2021/01/16 11:18:49;;;;;;;9.13;5.20;;;1.20;99.90;;;;;;4979228;29;20448;-48
2021/01/16 11:21:52;;;;;;;6.87;4.00;;;1.10;99.90;;;;;;4979275;29;20479;-53
2021/01/16 11:24:52;;;;;;;25.07;10.63;;;1.20;99.90;;;;;;4978452;29;20430;-49
2021/01/16 11:27:20;;;;;;;9.20;5.73;;;1.20;99.90;;;;;;4978573;29;20538;-50
2021/01/16 11:29:47;;;;;;;7.33;4.03;;;1.10;99.90;;;;;;4981702;28;20451;-50
2021/01/16 11:32:15;;;;;;;10.30;4.83;;;1.20;99.90;;;;;;4982434;29;20448;-50
2021/01/16 11:35:04;;;;;;;7.63;5.40;;;1.10;99.90;;;;;;4982622;29;20471;-52
2021/01/16 11:37:49;;;;;;;10.90;5.20;;;1.10;99.90;;;;;;4982498;29;20451;-50
2021/01/16 11:40:23;;;;;;;9.47;5.53;;;1.00;99.90;;;;;;4982422;28;20561;-53
2021/01/16 11:42:52;;;;;;;8.87;5.40;;;1.00;99.90;;;;;;4982608;29;20435;-50
2021/01/16 11:45:19;;;;;;;8.23;4.10;;;1.00;99.90;;;;;;4982198;29;20447;-50
2021/01/16 11:47:50;;;;;;;7.57;4.50;;;0.90;99.90;;;;;;4982504;28;20475;-54
2021/01/16 11:50:16;;;;;;;6.83;3.63;;;0.90;99.90;;;;;;4981898;29;20499;-53
2021/01/16 11:52:43;;;;;;;9.30;5.80;;;0.90;99.90;;;;;;4981955;29;20436;-49
2021/01/16 11:55:11;;;;;;;11.80;4.40;;;0.90;99.90;;;;;;4981959;28;20499;-46
2021/01/16 11:57:39;;;;;;;8.93;5.23;;;0.90;99.90;;;;;;4982225;29;20444;-51
2021/01/16 12:00:07;;;;;;;11.87;5.40;;;1.00;99.90;;;;;;4981941;29;20447;-50
2021/01/16 12:02:35;;;;;;;9.13;5.43;;;1.00;99.90;;;;;;4981969;28;20456;-49
2021/01/16 12:05:02;;;;;;;8.90;4.53;;;1.00;99.90;;;;;;4981789;29;20460;-51
2021/01/16 12:07:31;;;;;;;9.00;4.27;;;1.20;99.90;;;;;;4982050;29;20479;-52
2021/01/16 12:09:58;;;;;;;7.80;4.83;;;1.10;99.90;;;;;;4982363;29;20455;-53
2021/01/16 12:12:32;;;;;;;8.30;4.50;;;1.10;99.90;;;;;;4982187;29;20436;-47
2021/01/16 12:15:00;;;;;;;9.53;5.50;;;1.10;99.90;;;;;;4977547;29;20487;-47
2021/01/16 12:17:29;;;;;;;6.23;4.40;;;1.10;99.90;;;;;;4972425;29;20455;-48
2021/01/16 12:20:11;;;;;;;10.43;6.00;;;1.20;99.90;;;;;;4975970;28;20467;-52
2021/01/16 12:23:24;;;;;;;7.90;4.40;;;1.20;99.90;;;;;;5000137;28;20427;-52
2021/01/16 12:25:52;;;;;;;8.80;4.80;;;1.20;99.90;;;;;;4991383;28;20527;-51
2021/01/16 12:28:24;;;;;;;6.53;4.23;;;1.30;99.90;;;;;;4997658;28;20503;-48
2021/01/16 12:30:51;;;;;;;9.37;4.97;;;1.30;99.90;;;;;;5000056;28;20442;-51
2021/01/16 12:33:22;;;;;;;8.33;5.87;;;1.20;99.90;;;;;;5000606;28;20442;-48
2021/01/16 12:35:48;;;;;;;9.00;4.53;;;1.20;99.90;;;;;;4995085;28;20455;-52
2021/01/16 12:38:16;;;;;;;9.00;5.07;;;1.30;99.90;;;;;;4995181;28;20455;-50
2021/01/16 12:40:42;;;;;;;9.70;4.43;;;1.20;99.90;;;;;;4980056;28;20479;-48
2021/01/16 12:43:12;;;;;;;11.73;5.10;;;1.30;99.90;;;;;;4993169;28;20461;-51
2021/01/16 12:45:39;;;;;;;9.00;5.47;;;1.20;99.90;;;;;;4998291;28;20459;-50
2021/01/16 12:48:07;;;;;;;7.57;4.87;;;1.20;99.90;;;;;;5000406;28;20451;-49
2021/01/16 12:50:33;;;;;;;6.33;3.70;;;1.30;99.90;;;;;;4988069;28;20427;-56
2021/01/16 12:53:00;;;;;;;13.90;5.50;;;1.40;99.90;;;;;;4993239;28;20440;-54
2021/01/16 12:55:27;;;;;;;7.97;4.00;;;1.40;99.90;;;;;;4998861;28;20490;-50
2021/01/16 12:57:55;;;;;;;9.20;4.30;;;1.30;99.90;;;;;;4986070;28;20456;-53
2021/01/16 13:00:24;;;;;;;4.23;2.97;;;1.40;99.90;;;;;;4994502;28;20451;-50
2021/01/16 13:02:56;;;;;;;5.50;3.83;;;1.40;99.90;;;;;;4984052;28;20435;-48
2021/01/16 13:05:26;;;;;;;4.33;2.50;;;1.40;99.90;;;;;;4985125;28;20428;-51
2021/01/16 13:07:57;;;;;;;5.10;3.43;;;1.30;99.90;;;;;;4980488;29;20450;-49